sensor_id;sensor_type;location;lat;lon;timestamp;temperature;humidity
14277;DHT22;7222;57.346;12.150;2023-05-07T00:01:34;2.90;1.00
14277;DHT22;7222;57.346;12.150;2023-05-07T00:04:01;2.90;1.00
14277;DHT22;7222;57.346;12.150;2023-05-07T00:06:28;2.80;1.00
14277;DHT22;7222;57.346;12.150;2023-05-07T00:08:56;2.80;1.00
14277;DHT22;7222;57.346;12.150;2023-05-07T00:11:23;2.70;1.00
14277;DHT22;7222;57.346;12.150;2023-05-07T00:13:52;2.70;1.00
14277;DHT22;7222;57.346;12.150;2023-05-07T00:16:19;2.60;1.00
14277;DHT22;7222;57.346;12.150;2023-05-07T00:18:46;2.50;1.00
14277;DHT22;7222;57.346;12.150;2023-05-07T00:21:13;2.50;1.00
14277;DHT22;7222;57.346;12.150;2023-05-07T00:23:40;2.50;1.00
14277;DHT22;7222;57.346;12.150;2023-05-07T00:26:07;2.40;1.00
14277;DHT22;7222;57.346;12.150;2023-05-07T00:28:34;2.30;1.00
14277;DHT22;7222;57.346;12.150;2023-05-07T00:31:02;2.40;1.00
14277;DHT22;7222;57.346;12.150;2023-05-07T00:33:30;2.40;61.70
14277;DHT22;7222;57.346;12.150;2023-05-07T00:35:56;2.50;99.90
14277;DHT22;7222;57.346;12.150;2023-05-07T00:38:23;2.50;99.90
14277;DHT22;7222;57.346;12.150;2023-05-07T00:40:50;2.40;16.30
14277;DHT22;7222;57.346;12.150;2023-05-07T00:43:17;2.30;1.00
14277;DHT22;7222;57.346;12.150;2023-05-07T00:45:44;2.30;99.90
14277;DHT22;7222;57.346;12.150;2023-05-07T00:48:12;2.20;99.90
14277;DHT22;7222;57.346;12.150;2023-05-07T00:50:40;2.10;1.00
14277;DHT22;7222;57.346;12.150;2023-05-07T00:53:07;2.10;99.90
14277;DHT22;7222;57.346;12.150;2023-05-07T00:55:35;2.10;99.90
14277;DHT22;7222;57.346;12.150;2023-05-07T00:58:02;2.10;99.90
14277;DHT22;7222;57.346;12.150;2023-05-07T01:00:29;2.00;99.90
14277;DHT22;7222;57.346;12.150;2023-05-07T01:02:57;2.00;99.90
14277;DHT22;7222;57.346;12.150;2023-05-07T01:05:26;2.00;99.90
14277;DHT22;7222;57.346;12.150;2023-05-07T01:07:54;2.00;1.00
14277;DHT22;7222;57.346;12.150;2023-05-07T01:10:22;2.10;1.00
14277;DHT22;7222;57.346;12.150;2023-05-07T01:12:50;2.10;1.00
14277;DHT22;7222;57.346;12.150;2023-05-07T01:15:18;2.00;1.00
14277;DHT22;7222;57.346;12.150;2023-05-07T01:17:45;2.00;1.00
14277;DHT22;7222;57.346;12.150;2023-05-07T01:20:12;1.90;99.90
14277;DHT22;7222;57.346;12.150;2023-05-07T01:22:40;1.80;99.90
14277;DHT22;7222;57.346;12.150;2023-05-07T01:25:09;1.80;1.00
14277;DHT22;7222;57.346;12.150;2023-05-07T01:27:36;1.70;99.90
14277;DHT22;7222;57.346;12.150;2023-05-07T01:30:03;1.60;99.90
14277;DHT22;7222;57.346;12.150;2023-05-07T01:32:35;1.60;99.90
14277;DHT22;7222;57.346;12.150;2023-05-07T01:35:07;1.60;99.90
14277;DHT22;7222;57.346;12.150;2023-05-07T01:37:36;1.50;99.90
14277;DHT22;7222;57.346;12.150;2023-05-07T01:40:06;1.50;1.00
14277;DHT22;7222;57.346;12.150;2023-05-07T01:42:34;1.40;99.90
14277;DHT22;7222;57.346;12.150;2023-05-07T01:45:01;1.30;23.00
14277;DHT22;7222;57.346;12.150;2023-05-07T01:47:29;1.30;99.90
14277;DHT22;7222;57.346;12.150;2023-05-07T01:49:57;1.20;99.90
14277;DHT22;7222;57.346;12.150;2023-05-07T01:52:24;1.20;99.90
14277;DHT22;7222;57.346;12.150;2023-05-07T01:54:51;1.10;99.90
14277;DHT22;7222;57.346;12.150;2023-05-07T01:57:19;1.10;99.90
14277;DHT22;7222;57.346;12.150;2023-05-07T01:59:46;1.00;99.90
14277;DHT22;7222;57.346;12.150;2023-05-07T02:02:13;1.00;99.90
14277;DHT22;7222;57.346;12.150;2023-05-07T02:04:40;0.90;99.90
14277;DHT22;7222;57.346;12.150;2023-05-07T02:07:07;0.90;99.90
14277;DHT22;7222;57.346;12.150;2023-05-07T02:09:33;1.00;99.90
14277;DHT22;7222;57.346;12.150;2023-05-07T02:12:00;1.00;1.00
14277;DHT22;7222;57.346;12.150;2023-05-07T02:14:29;0.90;99.90
14277;DHT22;7222;57.346;12.150;2023-05-07T02:16:55;0.90;99.90
14277;DHT22;7222;57.346;12.150;2023-05-07T02:19:22;0.90;1.00
14277;DHT22;7222;57.346;12.150;2023-05-07T02:21:49;0.90;44.10
14277;DHT22;7222;57.346;12.150;2023-05-07T02:24:16;0.90;98.60
14277;DHT22;7222;57.346;12.150;2023-05-07T02:26:43;0.80;99.90
14277;DHT22;7222;57.346;12.150;2023-05-07T02:29:10;0.70;99.90
14277;DHT22;7222;57.346;12.150;2023-05-07T02:31:38;0.70;1.00
14277;DHT22;7222;57.346;12.150;2023-05-07T02:34:05;0.60;99.90
14277;DHT22;7222;57.346;12.150;2023-05-07T02:36:32;0.60;99.90
14277;DHT22;7222;57.346;12.150;2023-05-07T02:38:59;0.60;1.00
14277;DHT22;7222;57.346;12.150;2023-05-07T02:41:25;0.60;1.00
14277;DHT22;7222;57.346;12.150;2023-05-07T02:43:53;0.60;1.00
14277;DHT22;7222;57.346;12.150;2023-05-07T02:46:20;0.60;99.90
14277;DHT22;7222;57.346;12.150;2023-05-07T02:48:48;0.60;99.90
14277;DHT22;7222;57.346;12.150;2023-05-07T02:51:19;0.60;99.90
14277;DHT22;7222;57.346;12.150;2023-05-07T02:53:46;0.60;99.90
14277;DHT22;7222;57.346;12.150;2023-05-07T02:56:13;0.60;99.90
14277;DHT22;7222;57.346;12.150;2023-05-07T02:58:41;0.50;1.00
14277;DHT22;7222;57.346;12.150;2023-05-07T03:01:08;0.50;99.90
14277;DHT22;7222;57.346;12.150;2023-05-07T03:03:35;0.50;99.90
14277;DHT22;7222;57.346;12.150;2023-05-07T03:06:04;0.40;39.70
14277;DHT22;7222;57.346;12.150;2023-05-07T03:08:32;0.40;1.00
14277;DHT22;7222;57.346;12.150;2023-05-07T03:10:58;0.40;99.90
14277;DHT22;7222;57.346;12.150;2023-05-07T03:13:26;0.30;99.90
14277;DHT22;7222;57.346;12.150;2023-05-07T03:15:53;0.40;1.00
14277;DHT22;7222;57.346;12.150;2023-05-07T03:18:20;0.40;1.00
14277;DHT22;7222;57.346;12.150;2023-05-07T03:20:48;0.30;1.00
14277;DHT22;7222;57.346;12.150;2023-05-07T03:23:17;0.30;1.00
14277;DHT22;7222;57.346;12.150;2023-05-07T03:25:43;0.30;99.90
14277;DHT22;7222;57.346;12.150;2023-05-07T03:28:10;0.40;1.00
14277;DHT22;7222;57.346;12.150;2023-05-07T03:30:37;0.30;1.00
14277;DHT22;7222;57.346;12.150;2023-05-07T03:33:04;0.30;1.00
14277;DHT22;7222;57.346;12.150;2023-05-07T03:35:31;0.30;1.00
14277;DHT22;7222;57.346;12.150;2023-05-07T03:37:58;0.20;99.90
14277;DHT22;7222;57.346;12.150;2023-05-07T03:40:27;0.30;1.00
14277;DHT22;7222;57.346;12.150;2023-05-07T03:42:54;0.30;1.00
14277;DHT22;7222;57.346;12.150;2023-05-07T03:45:20;0.30;1.00
14277;DHT22;7222;57.346;12.150;2023-05-07T03:47:47;0.20;1.00
14277;DHT22;7222;57.346;12.150;2023-05-07T03:50:14;0.30;99.90
14277;DHT22;7222;57.346;12.150;2023-05-07T03:52:41;0.30;1.00
14277;DHT22;7222;57.346;12.150;2023-05-07T03:55:08;0.20;99.90
14277;DHT22;7222;57.346;12.150;2023-05-07T03:57:36;0.30;1.00
14277;DHT22;7222;57.346;12.150;2023-05-07T04:00:04;0.40;43.10
14277;DHT22;7222;57.346;12.150;2023-05-07T04:02:33;0.40;36.60
14277;DHT22;7222;57.346;12.150;2023-05-07T04:04:59;0.40;32.70
14277;DHT22;7222;57.346;12.150;2023-05-07T04:07:26;0.40;1.00
14277;DHT22;7222;57.346;12.150;2023-05-07T04:09:53;0.50;1.00
14277;DHT22;7222;57.346;12.150;2023-05-07T04:12:20;0.60;1.00
14277;DHT22;7222;57.346;12.150;2023-05-07T04:14:48;0.70;1.00
14277;DHT22;7222;57.346;12.150;2023-05-07T04:17:15;0.70;99.90
14277;DHT22;7222;57.346;12.150;2023-05-07T04:19:42;0.70;99.90
14277;DHT22;7222;57.346;12.150;2023-05-07T04:22:10;0.70;99.90
14277;DHT22;7222;57.346;12.150;2023-05-07T04:24:37;0.70;99.90
14277;DHT22;7222;57.346;12.150;2023-05-07T04:27:04;0.80;1.00
14277;DHT22;7222;57.346;12.150;2023-05-07T04:29:31;0.80;1.00
14277;DHT22;7222;57.346;12.150;2023-05-07T04:32:00;0.80;99.90
14277;DHT22;7222;57.346;12.150;2023-05-07T04:34:27;1.10;1.00
14277;DHT22;7222;57.346;12.150;2023-05-07T04:36:57;1.10;1.00
14277;DHT22;7222;57.346;12.150;2023-05-07T04:39:24;1.10;99.90
14277;DHT22;7222;57.346;12.150;2023-05-07T04:41:50;0.90;41.40
14277;DHT22;7222;57.346;12.150;2023-05-07T04:44:17;1.10;99.90
14277;DHT22;7222;57.346;12.150;2023-05-07T04:46:44;1.10;71.10
14277;DHT22;7222;57.346;12.150;2023-05-07T04:49:12;1.10;1.00
14277;DHT22;7222;57.346;12.150;2023-05-07T04:51:39;1.40;1.00
14277;DHT22;7222;57.346;12.150;2023-05-07T04:54:08;1.40;99.90
14277;DHT22;7222;57.346;12.150;2023-05-07T04:56:35;1.30;1.00
14277;DHT22;7222;57.346;12.150;2023-05-07T04:59:02;1.40;1.00
14277;DHT22;7222;57.346;12.150;2023-05-07T05:01:29;1.20;99.90
14277;DHT22;7222;57.346;12.150;2023-05-07T05:03:55;1.50;99.90
14277;DHT22;7222;57.346;12.150;2023-05-07T05:06:24;1.90;1.00
14277;DHT22;7222;57.346;12.150;2023-05-07T05:08:51;2.00;1.00
14277;DHT22;7222;57.346;12.150;2023-05-07T05:11:17;1.70;1.00
14277;DHT22;7222;57.346;12.150;2023-05-07T05:13:44;1.70;1.00
14277;DHT22;7222;57.346;12.150;2023-05-07T05:16:13;2.00;99.90
14277;DHT22;7222;57.346;12.150;2023-05-07T05:18:40;2.40;1.00
14277;DHT22;7222;57.346;12.150;2023-05-07T05:21:07;2.60;1.00
14277;DHT22;7222;57.346;12.150;2023-05-07T05:23:35;2.90;1.00
14277;DHT22;7222;57.346;12.150;2023-05-07T05:26:02;3.00;99.90
14277;DHT22;7222;57.346;12.150;2023-05-07T05:28:29;3.20;99.90
14277;DHT22;7222;57.346;12.150;2023-05-07T05:30:56;3.20;99.90
14277;DHT22;7222;57.346;12.150;2023-05-07T05:33:22;3.20;1.00
14277;DHT22;7222;57.346;12.150;2023-05-07T05:35:49;3.20;1.00
14277;DHT22;7222;57.346;12.150;2023-05-07T05:38:17;3.20;1.00
14277;DHT22;7222;57.346;12.150;2023-05-07T05:40:45;3.50;1.00
14277;DHT22;7222;57.346;12.150;2023-05-07T05:43:12;3.70;1.00
14277;DHT22;7222;57.346;12.150;2023-05-07T05:45:39;4.00;99.90
14277;DHT22;7222;57.346;12.150;2023-05-07T05:48:07;4.10;60.60
14277;DHT22;7222;57.346;12.150;2023-05-07T05:50:34;4.00;1.00
14277;DHT22;7222;57.346;12.150;2023-05-07T05:53:02;4.20;1.00
14277;DHT22;7222;57.346;12.150;2023-05-07T05:55:29;4.30;1.00
14277;DHT22;7222;57.346;12.150;2023-05-07T05:57:59;4.60;1.00
14277;DHT22;7222;57.346;12.150;2023-05-07T06:00:26;4.90;1.00
14277;DHT22;7222;57.346;12.150;2023-05-07T06:02:53;5.20;1.00
14277;DHT22;7222;57.346;12.150;2023-05-07T06:05:19;5.40;1.00
14277;DHT22;7222;57.346;12.150;2023-05-07T06:07:46;5.40;99.90
14277;DHT22;7222;57.346;12.150;2023-05-07T06:10:13;5.60;99.90
14277;DHT22;7222;57.346;12.150;2023-05-07T06:12:40;5.70;99.90
14277;DHT22;7222;57.346;12.150;2023-05-07T06:15:09;5.80;99.90
14277;DHT22;7222;57.346;12.150;2023-05-07T06:17:36;6.00;99.90
14277;DHT22;7222;57.346;12.150;2023-05-07T06:20:04;6.20;99.90
14277;DHT22;7222;57.346;12.150;2023-05-07T06:22:31;6.30;99.90
14277;DHT22;7222;57.346;12.150;2023-05-07T06:24:58;6.60;99.90
14277;DHT22;7222;57.346;12.150;2023-05-07T06:27:25;6.80;99.90
14277;DHT22;7222;57.346;12.150;2023-05-07T06:29:53;7.00;55.90
14277;DHT22;7222;57.346;12.150;2023-05-07T06:32:21;7.30;10.50
14277;DHT22;7222;57.346;12.150;2023-05-07T06:34:48;7.40;1.00
14277;DHT22;7222;57.346;12.150;2023-05-07T06:37:16;7.60;1.00
14277;DHT22;7222;57.346;12.150;2023-05-07T06:39:42;7.90;1.00
14277;DHT22;7222;57.346;12.150;2023-05-07T06:42:09;8.00;1.00
14277;DHT22;7222;57.346;12.150;2023-05-07T06:44:36;8.20;1.00
14277;DHT22;7222;57.346;12.150;2023-05-07T06:47:03;8.40;1.00
14277;DHT22;7222;57.346;12.150;2023-05-07T06:49:32;8.60;1.00
14277;DHT22;7222;57.346;12.150;2023-05-07T06:51:59;8.90;1.00
14277;DHT22;7222;57.346;12.150;2023-05-07T06:54:26;9.20;1.00
14277;DHT22;7222;57.346;12.150;2023-05-07T06:56:52;9.50;1.00
14277;DHT22;7222;57.346;12.150;2023-05-07T06:59:19;9.80;1.00
14277;DHT22;7222;57.346;12.150;2023-05-07T07:01:46;10.00;1.00
14277;DHT22;7222;57.346;12.150;2023-05-07T07:04:13;10.10;1.00
14277;DHT22;7222;57.346;12.150;2023-05-07T07:06:42;10.40;1.00
14277;DHT22;7222;57.346;12.150;2023-05-07T07:09:09;10.90;1.00
14277;DHT22;7222;57.346;12.150;2023-05-07T07:11:36;11.00;1.00
14277;DHT22;7222;57.346;12.150;2023-05-07T07:14:03;11.00;1.00
14277;DHT22;7222;57.346;12.150;2023-05-07T07:16:30;11.40;1.00
14277;DHT22;7222;57.346;12.150;2023-05-07T07:18:57;11.50;1.00
14277;DHT22;7222;57.346;12.150;2023-05-07T07:21:24;11.50;1.00
14277;DHT22;7222;57.346;12.150;2023-05-07T07:23:53;12.00;1.00
14277;DHT22;7222;57.346;12.150;2023-05-07T07:26:19;12.40;1.00
14277;DHT22;7222;57.346;12.150;2023-05-07T07:28:46;12.80;1.00
14277;DHT22;7222;57.346;12.150;2023-05-07T07:31:14;13.20;1.00
14277;DHT22;7222;57.346;12.150;2023-05-07T07:33:41;13.10;1.00
14277;DHT22;7222;57.346;12.150;2023-05-07T07:36:09;13.40;1.00
14277;DHT22;7222;57.346;12.150;2023-05-07T07:38:36;13.50;1.00
14277;DHT22;7222;57.346;12.150;2023-05-07T07:41:05;13.60;1.00
14277;DHT22;7222;57.346;12.150;2023-05-07T07:43:32;14.20;1.00
14277;DHT22;7222;57.346;12.150;2023-05-07T07:45:58;13.30;1.00
14277;DHT22;7222;57.346;12.150;2023-05-07T07:48:26;13.50;1.00
14277;DHT22;7222;57.346;12.150;2023-05-07T07:50:53;14.50;1.00
14277;DHT22;7222;57.346;12.150;2023-05-07T07:53:20;15.10;1.00
14277;DHT22;7222;57.346;12.150;2023-05-07T07:55:47;15.10;1.00
14277;DHT22;7222;57.346;12.150;2023-05-07T07:58:15;15.70;1.00
14277;DHT22;7222;57.346;12.150;2023-05-07T08:00:42;16.10;1.00
14277;DHT22;7222;57.346;12.150;2023-05-07T08:03:09;16.70;1.00
14277;DHT22;7222;57.346;12.150;2023-05-07T08:05:36;16.80;1.00
14277;DHT22;7222;57.346;12.150;2023-05-07T08:08:04;16.90;1.00
14277;DHT22;7222;57.346;12.150;2023-05-07T08:10:32;17.10;1.00
14277;DHT22;7222;57.346;12.150;2023-05-07T08:13:00;17.60;1.00
14277;DHT22;7222;57.346;12.150;2023-05-07T08:15:30;17.80;1.00
14277;DHT22;7222;57.346;12.150;2023-05-07T08:17:58;17.60;1.00
14277;DHT22;7222;57.346;12.150;2023-05-07T08:20:25;16.80;1.00
14277;DHT22;7222;57.346;12.150;2023-05-07T08:22:52;17.00;1.00
14277;DHT22;7222;57.346;12.150;2023-05-07T08:25:19;17.90;1.00
14277;DHT22;7222;57.346;12.150;2023-05-07T08:27:47;18.60;1.00
14277;DHT22;7222;57.346;12.150;2023-05-07T08:30:14;19.40;1.00
14277;DHT22;7222;57.346;12.150;2023-05-07T08:32:43;19.40;1.00
14277;DHT22;7222;57.346;12.150;2023-05-07T08:35:10;18.00;1.00
14277;DHT22;7222;57.346;12.150;2023-05-07T08:37:37;15.00;1.00
14277;DHT22;7222;57.346;12.150;2023-05-07T08:40:05;16.80;1.00
14277;DHT22;7222;57.346;12.150;2023-05-07T08:42:35;16.30;1.00
14277;DHT22;7222;57.346;12.150;2023-05-07T08:45:03;18.10;1.00
14277;DHT22;7222;57.346;12.150;2023-05-07T08:47:39;17.30;1.00
14277;DHT22;7222;57.346;12.150;2023-05-07T08:50:08;17.60;1.00
14277;DHT22;7222;57.346;12.150;2023-05-07T08:52:35;16.20;1.00
14277;DHT22;7222;57.346;12.150;2023-05-07T08:55:03;18.40;1.00
14277;DHT22;7222;57.346;12.150;2023-05-07T08:57:30;20.00;1.00
14277;DHT22;7222;57.346;12.150;2023-05-07T08:59:57;19.70;1.00
14277;DHT22;7222;57.346;12.150;2023-05-07T09:02:24;19.50;1.00
14277;DHT22;7222;57.346;12.150;2023-05-07T09:04:51;19.50;1.00
14277;DHT22;7222;57.346;12.150;2023-05-07T09:07:21;20.50;1.00
14277;DHT22;7222;57.346;12.150;2023-05-07T09:09:49;16.70;99.90
14277;DHT22;7222;57.346;12.150;2023-05-07T09:12:17;18.80;1.00
14277;DHT22;7222;57.346;12.150;2023-05-07T09:14:45;15.70;99.90
14277;DHT22;7222;57.346;12.150;2023-05-07T09:17:12;16.90;1.00
14277;DHT22;7222;57.346;12.150;2023-05-07T09:19:39;18.30;1.00
14277;DHT22;7222;57.346;12.150;2023-05-07T09:22:06;15.70;99.90
14277;DHT22;7222;57.346;12.150;2023-05-07T09:24:35;16.30;1.00
14277;DHT22;7222;57.346;12.150;2023-05-07T09:27:03;19.10;1.00
14277;DHT22;7222;57.346;12.150;2023-05-07T09:29:30;20.60;1.00
14277;DHT22;7222;57.346;12.150;2023-05-07T09:32:00;19.10;99.90
14277;DHT22;7222;57.346;12.150;2023-05-07T09:34:28;21.70;1.00
14277;DHT22;7222;57.346;12.150;2023-05-07T09:36:55;23.00;1.00
14277;DHT22;7222;57.346;12.150;2023-05-07T09:39:23;20.70;99.90
14277;DHT22;7222;57.346;12.150;2023-05-07T09:41:52;22.30;1.00
14277;DHT22;7222;57.346;12.150;2023-05-07T09:44:20;21.20;99.90
14277;DHT22;7222;57.346;12.150;2023-05-07T09:46:53;17.00;99.90
14277;DHT22;7222;57.346;12.150;2023-05-07T09:49:23;18.20;99.90
14277;DHT22;7222;57.346;12.150;2023-05-07T09:51:51;17.70;99.90
14277;DHT22;7222;57.346;12.150;2023-05-07T09:54:18;18.50;1.00
14277;DHT22;7222;57.346;12.150;2023-05-07T09:56:46;16.40;99.90
14277;DHT22;7222;57.346;12.150;2023-05-07T09:59:16;18.20;99.90
14277;DHT22;7222;57.346;12.150;2023-05-07T10:01:44;17.80;1.00
14277;DHT22;7222;57.346;12.150;2023-05-07T10:04:12;17.90;1.00
14277;DHT22;7222;57.346;12.150;2023-05-07T10:06:39;22.10;1.00
14277;DHT22;7222;57.346;12.150;2023-05-07T10:09:06;21.90;99.90
14277;DHT22;7222;57.346;12.150;2023-05-07T10:11:33;22.00;99.90
14277;DHT22;7222;57.346;12.150;2023-05-07T10:14:01;20.60;99.90
14277;DHT22;7222;57.346;12.150;2023-05-07T10:16:31;21.60;1.00
14277;DHT22;7222;57.346;12.150;2023-05-07T10:19:02;23.40;99.90
14277;DHT22;7222;57.346;12.150;2023-05-07T10:21:29;19.50;99.90
14277;DHT22;7222;57.346;12.150;2023-05-07T10:23:59;17.40;99.90
14277;DHT22;7222;57.346;12.150;2023-05-07T10:26:27;18.10;1.00
14277;DHT22;7222;57.346;12.150;2023-05-07T10:28:59;18.10;99.90
14277;DHT22;7222;57.346;12.150;2023-05-07T10:31:50;21.20;99.90
14277;DHT22;7222;57.346;12.150;2023-05-07T10:34:23;18.40;99.90
14277;DHT22;7222;57.346;12.150;2023-05-07T10:36:52;20.10;99.90
14277;DHT22;7222;57.346;12.150;2023-05-07T10:39:19;17.90;99.90
14277;DHT22;7222;57.346;12.150;2023-05-07T10:41:48;16.70;99.90
14277;DHT22;7222;57.346;12.150;2023-05-07T10:44:25;16.20;99.90
14277;DHT22;7222;57.346;12.150;2023-05-07T10:47:08;16.40;99.90
14277;DHT22;7222;57.346;12.150;2023-05-07T10:49:36;16.40;99.90
14277;DHT22;7222;57.346;12.150;2023-05-07T10:52:13;17.30;99.90
14277;DHT22;7222;57.346;12.150;2023-05-07T10:54:41;17.10;99.90
14277;DHT22;7222;57.346;12.150;2023-05-07T10:57:33;19.00;1.00
14277;DHT22;7222;57.346;12.150;2023-05-07T11:00:01;19.00;1.00
14277;DHT22;7222;57.346;12.150;2023-05-07T11:05:32;18.00;1.00
14277;DHT22;7222;57.346;12.150;2023-05-07T11:08:00;18.50;99.90
14277;DHT22;7222;57.346;12.150;2023-05-07T11:10:49;19.70;1.00
14277;DHT22;7222;57.346;12.150;2023-05-07T11:13:17;18.10;1.00
14277;DHT22;7222;57.346;12.150;2023-05-07T11:15:45;20.30;1.00
14277;DHT22;7222;57.346;12.150;2023-05-07T11:18:13;18.60;99.90
14277;DHT22;7222;57.346;12.150;2023-05-07T11:20:53;18.30;99.90
14277;DHT22;7222;57.346;12.150;2023-05-07T11:23:56;18.00;99.90
14277;DHT22;7222;57.346;12.150;2023-05-07T11:26:31;15.70;99.90
14277;DHT22;7222;57.346;12.150;2023-05-07T11:29:10;18.80;1.00
14277;DHT22;7222;57.346;12.150;2023-05-07T11:31:37;19.40;99.90
14277;DHT22;7222;57.346;12.150;2023-05-07T11:34:05;18.20;99.90
14277;DHT22;7222;57.346;12.150;2023-05-07T11:36:34;19.00;99.90
14277;DHT22;7222;57.346;12.150;2023-05-07T11:39:02;18.30;99.90
14277;DHT22;7222;57.346;12.150;2023-05-07T11:41:35;17.10;99.90
14277;DHT22;7222;57.346;12.150;2023-05-07T11:44:03;17.10;99.90
14277;DHT22;7222;57.346;12.150;2023-05-07T11:46:30;18.30;99.90
14277;DHT22;7222;57.346;12.150;2023-05-07T11:48:57;20.30;1.00
14277;DHT22;7222;57.346;12.150;2023-05-07T11:51:25;20.60;1.00
14277;DHT22;7222;57.346;12.150;2023-05-07T11:53:54;20.90;99.90
14277;DHT22;7222;57.346;12.150;2023-05-07T11:56:20;17.70;99.90
14277;DHT22;7222;57.346;12.150;2023-05-07T11:58:48;18.70;1.00
14277;DHT22;7222;57.346;12.150;2023-05-07T12:01:16;18.10;99.90
14277;DHT22;7222;57.346;12.150;2023-05-07T12:03:44;17.50;99.90
14277;DHT22;7222;57.346;12.150;2023-05-07T12:06:13;18.80;1.00
14277;DHT22;7222;57.346;12.150;2023-05-07T12:08:40;20.30;99.90
14277;DHT22;7222;57.346;12.150;2023-05-07T12:11:12;19.50;99.90
14277;DHT22;7222;57.346;12.150;2023-05-07T12:13:41;18.80;99.90
14277;DHT22;7222;57.346;12.150;2023-05-07T12:16:08;20.10;1.00
14277;DHT22;7222;57.346;12.150;2023-05-07T12:18:36;19.80;99.90
14277;DHT22;7222;57.346;12.150;2023-05-07T12:21:05;17.30;99.90
14277;DHT22;7222;57.346;12.150;2023-05-07T12:23:34;17.10;99.90
14277;DHT22;7222;57.346;12.150;2023-05-07T12:26:01;19.40;1.00
14277;DHT22;7222;57.346;12.150;2023-05-07T12:28:30;20.80;99.90
14277;DHT22;7222;57.346;12.150;2023-05-07T12:30:57;20.10;1.00
14277;DHT22;7222;57.346;12.150;2023-05-07T12:33:26;20.00;1.00
14277;DHT22;7222;57.346;12.150;2023-05-07T12:35:54;19.80;1.00
14277;DHT22;7222;57.346;12.150;2023-05-07T12:38:22;19.80;99.90
14277;DHT22;7222;57.346;12.150;2023-05-07T12:40:50;18.20;1.00
14277;DHT22;7222;57.346;12.150;2023-05-07T12:43:18;17.90;99.90
14277;DHT22;7222;57.346;12.150;2023-05-07T12:45:48;19.60;1.00
14277;DHT22;7222;57.346;12.150;2023-05-07T12:48:16;18.90;99.90
14277;DHT22;7222;57.346;12.150;2023-05-07T12:50:43;20.00;1.00
14277;DHT22;7222;57.346;12.150;2023-05-07T12:53:11;22.40;1.00
14277;DHT22;7222;57.346;12.150;2023-05-07T12:55:42;21.10;1.00
14277;DHT22;7222;57.346;12.150;2023-05-07T12:58:15;19.30;1.00
14277;DHT22;7222;57.346;12.150;2023-05-07T13:00:43;21.10;99.90
14277;DHT22;7222;57.346;12.150;2023-05-07T13:03:21;22.50;1.00
14277;DHT22;7222;57.346;12.150;2023-05-07T13:05:48;20.00;99.90
14277;DHT22;7222;57.346;12.150;2023-05-07T13:08:24;19.90;99.90
14277;DHT22;7222;57.346;12.150;2023-05-07T13:10:51;20.90;99.90
14277;DHT22;7222;57.346;12.150;2023-05-07T13:13:18;19.00;99.90
14277;DHT22;7222;57.346;12.150;2023-05-07T13:15:45;19.90;99.90
14277;DHT22;7222;57.346;12.150;2023-05-07T13:18:14;19.60;99.90
14277;DHT22;7222;57.346;12.150;2023-05-07T13:20:41;20.80;99.90
14277;DHT22;7222;57.346;12.150;2023-05-07T13:23:07;19.10;1.00
14277;DHT22;7222;57.346;12.150;2023-05-07T13:25:34;21.30;99.90
14277;DHT22;7222;57.346;12.150;2023-05-07T13:28:02;20.70;1.00
14277;DHT22;7222;57.346;12.150;2023-05-07T13:30:29;20.40;1.00
14277;DHT22;7222;57.346;12.150;2023-05-07T13:32:56;19.90;1.00
14277;DHT22;7222;57.346;12.150;2023-05-07T13:35:25;20.60;99.90
14277;DHT22;7222;57.346;12.150;2023-05-07T13:37:52;21.20;99.90
14277;DHT22;7222;57.346;12.150;2023-05-07T13:40:20;20.30;99.90
14277;DHT22;7222;57.346;12.150;2023-05-07T13:42:47;18.70;99.90
14277;DHT22;7222;57.346;12.150;2023-05-07T13:45:14;18.90;1.00
14277;DHT22;7222;57.346;12.150;2023-05-07T13:47:41;19.40;1.00
14277;DHT22;7222;57.346;12.150;2023-05-07T13:50:10;19.30;99.90
14277;DHT22;7222;57.346;12.150;2023-05-07T13:52:41;20.50;1.00
14277;DHT22;7222;57.346;12.150;2023-05-07T13:55:09;18.60;99.90
14277;DHT22;7222;57.346;12.150;2023-05-07T13:57:36;17.50;1.00
14277;DHT22;7222;57.346;12.150;2023-05-07T14:00:04;18.90;1.00
14277;DHT22;7222;57.346;12.150;2023-05-07T14:02:32;19.30;99.90
14277;DHT22;7222;57.346;12.150;2023-05-07T14:04:59;19.20;99.90
14277;DHT22;7222;57.346;12.150;2023-05-07T14:07:26;19.70;1.00
14277;DHT22;7222;57.346;12.150;2023-05-07T14:09:57;19.10;1.00
14277;DHT22;7222;57.346;12.150;2023-05-07T14:12:24;19.30;99.90
14277;DHT22;7222;57.346;12.150;2023-05-07T14:14:51;18.50;99.90
14277;DHT22;7222;57.346;12.150;2023-05-07T14:17:19;19.30;99.90
14277;DHT22;7222;57.346;12.150;2023-05-07T14:19:48;18.80;1.00
14277;DHT22;7222;57.346;12.150;2023-05-07T14:22:15;19.50;99.90
14277;DHT22;7222;57.346;12.150;2023-05-07T14:24:42;18.50;99.90
14277;DHT22;7222;57.346;12.150;2023-05-07T14:27:10;18.20;99.90
14277;DHT22;7222;57.346;12.150;2023-05-07T14:29:37;20.40;1.00
14277;DHT22;7222;57.346;12.150;2023-05-07T14:32:04;22.80;1.00
14277;DHT22;7222;57.346;12.150;2023-05-07T14:34:31;22.20;99.90
14277;DHT22;7222;57.346;12.150;2023-05-07T14:37:00;20.90;99.90
14277;DHT22;7222;57.346;12.150;2023-05-07T14:39:27;21.70;1.00
14277;DHT22;7222;57.346;12.150;2023-05-07T14:41:54;21.00;99.90
14277;DHT22;7222;57.346;12.150;2023-05-07T14:44:22;20.10;99.90
14277;DHT22;7222;57.346;12.150;2023-05-07T14:46:49;19.40;99.90
14277;DHT22;7222;57.346;12.150;2023-05-07T14:49:16;20.60;99.90
14277;DHT22;7222;57.346;12.150;2023-05-07T14:51:43;20.00;1.00
14277;DHT22;7222;57.346;12.150;2023-05-07T14:54:11;20.40;99.90
14277;DHT22;7222;57.346;12.150;2023-05-07T14:56:39;19.60;99.90
14277;DHT22;7222;57.346;12.150;2023-05-07T14:59:06;20.60;99.90
14277;DHT22;7222;57.346;12.150;2023-05-07T15:01:35;19.60;99.90
14277;DHT22;7222;57.346;12.150;2023-05-07T15:04:04;19.40;99.90
14277;DHT22;7222;57.346;12.150;2023-05-07T15:06:31;20.80;1.00
14277;DHT22;7222;57.346;12.150;2023-05-07T15:08:58;20.70;99.90
14277;DHT22;7222;57.346;12.150;2023-05-07T15:11:25;21.10;1.00
14277;DHT22;7222;57.346;12.150;2023-05-07T15:13:52;21.50;1.00
14277;DHT22;7222;57.346;12.150;2023-05-07T15:16:19;20.30;1.00
14277;DHT22;7222;57.346;12.150;2023-05-07T15:18:48;20.50;1.00
14277;DHT22;7222;57.346;12.150;2023-05-07T15:21:15;23.30;1.00
14277;DHT22;7222;57.346;12.150;2023-05-07T15:23:41;21.90;1.00
14277;DHT22;7222;57.346;12.150;2023-05-07T15:26:10;21.10;1.00
14277;DHT22;7222;57.346;12.150;2023-05-07T15:28:37;23.30;99.90
14277;DHT22;7222;57.346;12.150;2023-05-07T15:31:04;19.50;99.90
14277;DHT22;7222;57.346;12.150;2023-05-07T15:33:32;21.10;99.90
14277;DHT22;7222;57.346;12.150;2023-05-07T15:36:01;21.50;1.00
14277;DHT22;7222;57.346;12.150;2023-05-07T15:38:28;23.40;1.00
14277;DHT22;7222;57.346;12.150;2023-05-07T15:40:55;21.80;99.90
14277;DHT22;7222;57.346;12.150;2023-05-07T15:43:22;20.90;99.90
14277;DHT22;7222;57.346;12.150;2023-05-07T15:45:50;22.70;1.00
14277;DHT22;7222;57.346;12.150;2023-05-07T15:48:17;24.50;99.90
14277;DHT22;7222;57.346;12.150;2023-05-07T15:50:44;22.20;99.90
14277;DHT22;7222;57.346;12.150;2023-05-07T15:53:13;20.80;99.90